Time;durP1;ratioP1;P1;durP2;ratioP2;P2;SDS_P1;SDS_P2;PMS_P1;PMS_P2;Temp;Humidity;BMP_temperature;BMP_pressure;BME280_temperature;BME280_humidity;BME280_pressure;Samples;Min_cycle;Max_cycle;Signal;HPM_P1;HPM_P2
2022/04/19 04:02:32;;;;;;;4.07;3.88;;;5.30;99.90;;;;;;4999172;23;20244;-68
2022/04/19 04:04:59;;;;;;;4.40;4.00;;;5.30;99.90;;;;;;4968398;28;20243;-68
2022/04/19 04:07:27;;;;;;;4.75;4.35;;;5.30;99.90;;;;;;4971508;28;20303;-68
2022/04/19 04:09:54;;;;;;;5.10;4.60;;;5.20;99.90;;;;;;4971922;28;20258;-68
2022/04/19 04:12:21;;;;;;;4.28;4.00;;;5.20;99.90;;;;;;4957401;28;20232;-68
2022/04/19 04:14:47;;;;;;;4.55;4.25;;;5.20;99.90;;;;;;4953380;28;20300;-68
2022/04/19 04:17:14;;;;;;;6.28;4.60;;;5.20;99.90;;;;;;4952839;28;20205;-68
2022/04/19 04:19:43;;;;;;;5.35;4.95;;;5.20;99.90;;;;;;4951907;28;20264;-69
2022/04/19 04:22:09;;;;;;;4.60;4.30;;;5.20;99.90;;;;;;4952731;28;20309;-68
2022/04/19 04:24:36;;;;;;;4.40;4.20;;;5.30;99.90;;;;;;4953199;28;20232;-69
2022/04/19 04:27:03;;;;;;;4.72;4.32;;;5.30;99.90;;;;;;4952352;28;20666;-69
2022/04/19 04:29:30;;;;;;;6.05;5.20;;;5.30;99.90;;;;;;4950389;28;20213;-69
2022/04/19 04:31:57;;;;;;;4.45;4.15;;;5.30;99.90;;;;;;4952718;28;20260;-68
2022/04/19 04:34:24;;;;;;;4.82;4.18;;;5.30;99.90;;;;;;4951942;28;20201;-69
2022/04/19 04:36:52;;;;;;;5.22;4.82;;;5.40;99.90;;;;;;4964104;28;20200;-69
2022/04/19 04:39:19;;;;;;;4.60;4.30;;;5.40;99.90;;;;;;4970892;28;20219;-68
2022/04/19 04:41:46;;;;;;;6.28;4.40;;;5.50;99.90;;;;;;4961541;28;20229;-69
2022/04/19 04:44:12;;;;;;;5.25;4.30;;;5.50;99.90;;;;;;4957358;28;20299;-68
2022/04/19 04:49:39;;;;;;;3.92;3.67;;;5.70;99.90;;;;;;4955951;28;20208;-68
2022/04/19 04:52:09;;;;;;;4.30;3.90;;;5.80;99.90;;;;;;4975032;28;20311;-67
2022/04/19 04:54:36;;;;;;;5.30;4.22;;;6.00;99.90;;;;;;4972999;28;20208;-68
2022/04/19 04:57:03;;;;;;;3.78;3.50;;;6.30;99.90;;;;;;4974054;28;20208;-69
2022/04/19 04:59:30;;;;;;;3.95;3.65;;;6.60;99.90;;;;;;4962567;28;20562;-68
2022/04/19 05:01:57;;;;;;;4.88;4.50;;;6.90;99.90;;;;;;4955880;28;20370;-70
2022/04/19 05:04:23;;;;;;;4.43;4.13;;;7.10;99.90;;;;;;4967006;28;20209;-69
2022/04/19 05:06:50;;;;;;;4.00;3.70;;;7.20;99.90;;;;;;4961884;28;20209;-69
2022/04/19 05:09:18;;;;;;;4.00;3.65;;;7.20;99.90;;;;;;4971591;28;20208;-69
2022/04/19 05:11:46;;;;;;;8.95;4.82;;;7.20;99.90;;;;;;4957824;28;20247;-68
2022/04/19 05:14:13;;;;;;;3.78;3.67;;;7.20;99.90;;;;;;4964182;28;20343;-69
2022/04/19 05:16:40;;;;;;;4.13;3.92;;;7.10;99.90;;;;;;4958206;28;20205;-68
2022/04/19 05:19:08;;;;;;;5.32;4.82;;;7.00;99.90;;;;;;4955175;28;20264;-68
2022/04/19 05:21:37;;;;;;;4.30;4.00;;;7.00;99.90;;;;;;4954772;28;20276;-69
2022/04/19 05:24:04;;;;;;;4.70;4.30;;;7.00;99.90;;;;;;4955895;28;20712;-69
2022/04/19 05:26:32;;;;;;;4.30;4.03;;;7.00;99.90;;;;;;4955540;28;20216;-70
2022/04/19 05:28:59;;;;;;;4.50;4.10;;;7.00;99.90;;;;;;4960559;28;20209;-69
2022/04/19 05:31:26;;;;;;;3.80;3.50;;;6.90;99.90;;;;;;4960800;28;20225;-68
2022/04/19 05:33:52;;;;;;;3.20;3.03;;;6.90;99.90;;;;;;4955416;28;20205;-68
2022/04/19 05:36:19;;;;;;;4.03;3.72;;;7.00;99.90;;;;;;4955044;28;20265;-68
2022/04/19 05:38:52;;;;;;;3.35;3.15;;;7.00;99.90;;;;;;4954933;28;20248;-72
2022/04/19 05:41:19;;;;;;;3.33;3.08;;;7.00;99.90;;;;;;4954934;28;20243;-68
2022/04/19 05:43:47;;;;;;;3.80;3.50;;;7.00;99.90;;;;;;4961648;28;20216;-68
2022/04/19 05:46:16;;;;;;;3.08;2.97;;;7.20;99.90;;;;;;4974661;28;20672;-66
2022/04/19 05:48:42;;;;;;;3.00;2.80;;;7.30;99.90;;;;;;4972319;28;20197;-67
2022/04/19 05:51:10;;;;;;;3.83;3.55;;;7.20;99.90;;;;;;4973229;28;20252;-68
2022/04/19 05:53:36;;;;;;;3.47;3.35;;;7.10;99.90;;;;;;4969558;28;20240;-67
2022/04/19 05:56:03;;;;;;;2.80;2.60;;;7.10;99.90;;;;;;4955177;29;20649;-68
2022/04/19 05:58:30;;;;;;;2.70;2.55;;;7.10;99.90;;;;;;4955374;28;20212;-68
2022/04/19 06:00:59;;;;;;;2.28;2.17;;;7.20;99.90;;;;;;4952472;28;20237;-66
2022/04/19 06:06:09;;;;;;;2.80;2.70;;;7.20;99.90;;;;;;4974399;28;20219;-68
2022/04/19 06:08:36;;;;;;;2.58;2.40;;;7.40;99.90;;;;;;4965754;28;20672;-68
2022/04/19 06:11:03;;;;;;;2.78;2.67;;;7.50;99.90;;;;;;4954034;28;20633;-68
2022/04/19 06:13:29;;;;;;;2.88;2.75;;;7.70;99.90;;;;;;4955232;28;20221;-68
2022/04/19 06:15:57;;;;;;;2.60;2.50;;;8.10;99.90;;;;;;4973986;28;20255;-68
2022/04/19 06:18:24;;;;;;;3.03;2.65;;;8.30;99.90;;;;;;4968956;28;20201;-68
2022/04/19 06:20:53;;;;;;;3.63;3.33;;;8.80;99.90;;;;;;4972130;28;20259;-67
2022/04/19 06:23:20;;;;;;;3.85;3.65;;;9.20;99.90;;;;;;4970308;28;20201;-66
2022/04/19 06:25:46;;;;;;;3.25;3.10;;;9.60;99.90;;;;;;4972296;28;20645;-65
2022/04/19 06:28:13;;;;;;;3.40;3.30;;;9.80;99.90;;;;;;4966031;28;20206;-66
2022/04/19 06:30:40;;;;;;;2.95;2.75;;;9.70;99.90;;;;;;4958845;28;20280;-66
2022/04/19 06:33:08;;;;;;;2.88;2.78;;;9.50;99.90;;;;;;4972603;28;20255;-66
2022/04/19 06:35:34;;;;;;;2.72;2.53;;;9.30;99.90;;;;;;4958399;28;20201;-66
2022/04/19 06:38:02;;;;;;;2.60;2.50;;;9.20;99.90;;;;;;4954344;28;20209;-66
2022/04/19 06:40:28;;;;;;;3.30;3.13;;;9.10;99.90;;;;;;4951478;28;20228;-67
2022/04/19 06:42:57;;;;;;;3.00;2.90;;;9.00;99.90;;;;;;4956522;28;20291;-66
2022/04/19 06:45:24;;;;;;;3.75;3.55;;;8.80;99.90;;;;;;4960656;28;20205;-66
2022/04/19 06:47:57;;;;;;;3.33;3.22;;;8.50;99.90;;;;;;4953610;28;20704;-66
2022/04/19 06:50:25;;;;;;;2.55;2.50;;;8.40;99.90;;;;;;4952028;28;20288;-66
2022/04/19 06:52:52;;;;;;;3.13;2.92;;;8.50;99.90;;;;;;4953730;28;20212;-66
2022/04/19 06:55:19;;;;;;;3.45;3.25;;;8.50;99.90;;;;;;4962062;28;20291;-66
2022/04/19 06:57:46;;;;;;;1.67;1.55;;;8.50;99.90;;;;;;4972896;28;20231;-67
2022/04/19 07:00:14;;;;;;;2.47;2.38;;;8.40;99.90;;;;;;4954415;28;20241;-66
2022/04/19 07:02:40;;;;;;;2.53;2.42;;;8.40;99.90;;;;;;4952903;28;20983;-66
2022/04/19 07:05:08;;;;;;;3.10;2.90;;;8.50;99.90;;;;;;4957836;28;20875;-66
2022/04/19 07:07:37;;;;;;;2.10;2.10;;;8.50;99.90;;;;;;4964655;28;20212;-67
2022/04/19 07:10:04;;;;;;;5.05;2.70;;;8.70;99.90;;;;;;4960356;28;20641;-66
2022/04/19 07:12:31;;;;;;;1.77;1.77;;;8.70;99.90;;;;;;4953607;28;20233;-67
2022/04/19 07:14:58;;;;;;;2.10;2.00;;;8.80;99.90;;;;;;4956780;28;20209;-68
2022/04/19 07:17:24;;;;;;;4.22;2.25;;;8.80;99.90;;;;;;4953093;28;20272;-66
2022/04/19 07:28:05;;;;;;;2.65;2.50;;;9.20;99.90;;;;;;4962196;28;20292;-66
2022/04/19 07:30:32;;;;;;;2.20;2.10;;;9.30;99.90;;;;;;4952236;28;20249;-67
2022/04/19 07:33:00;;;;;;;2.08;1.85;;;9.40;99.90;;;;;;4951886;29;20300;-67
2022/04/19 07:35:27;;;;;;;1.73;1.73;;;9.50;99.90;;;;;;4952331;28;20682;-69
2022/04/19 07:37:55;;;;;;;2.28;2.17;;;9.50;99.90;;;;;;4951540;28;20216;-66
2022/04/19 07:40:22;;;;;;;1.90;1.80;;;9.60;99.90;;;;;;4951902;28;20202;-67
2022/04/19 07:42:49;;;;;;;1.70;1.70;;;9.70;99.90;;;;;;4952479;28;20210;-66
2022/04/19 07:45:16;;;;;;;1.50;1.40;;;9.70;99.90;;;;;;4952753;28;20261;-67
2022/04/19 07:47:42;;;;;;;1.90;1.80;;;9.70;99.90;;;;;;4958283;28;20340;-67
2022/04/19 07:50:09;;;;;;;2.10;2.10;;;9.70;99.90;;;;;;4948563;28;20217;-66
2022/04/19 07:52:36;;;;;;;1.30;1.30;;;9.70;99.90;;;;;;4953579;28;20256;-66
2022/04/19 07:55:04;;;;;;;2.03;1.95;;;9.80;99.90;;;;;;4965474;28;20240;-66
2022/04/19 07:57:31;;;;;;;1.73;1.63;;;9.80;99.90;;;;;;4957197;28;20197;-66
2022/04/19 07:59:57;;;;;;;1.67;1.67;;;9.90;99.90;;;;;;4947831;29;20240;-66
2022/04/19 08:02:24;;;;;;;1.92;1.83;;;9.90;99.90;;;;;;4952306;28;20225;-66
2022/04/19 08:04:51;;;;;;;1.50;1.50;;;10.00;99.90;;;;;;4952410;29;20208;-68
2022/04/19 08:07:17;;;;;;;1.88;1.45;;;10.00;99.90;;;;;;4962040;28;20568;-68
2022/04/19 08:09:44;;;;;;;1.70;1.70;;;10.00;99.90;;;;;;4950168;28;20240;-68
2022/04/19 08:12:12;;;;;;;1.13;1.13;;;10.10;99.90;;;;;;4952326;28;20729;-68
2022/04/19 08:14:41;;;;;;;1.40;1.40;;;10.20;99.90;;;;;;4956308;28;20206;-68
2022/04/19 08:17:07;;;;;;;2.92;2.05;;;10.20;99.90;;;;;;4945069;28;20209;-68
2022/04/19 08:19:34;;;;;;;1.80;1.65;;;10.20;99.90;;;;;;4951711;28;20354;-68
2022/04/19 08:22:01;;;;;;;1.50;1.50;;;10.40;99.90;;;;;;4955754;28;20227;-68
2022/04/19 08:24:28;;;;;;;1.65;1.65;;;10.50;99.90;;;;;;4952450;28;20209;-68
2022/04/19 08:26:54;;;;;;;1.60;1.52;;;10.50;99.60;;;;;;4965273;28;20218;-69
2022/04/19 08:29:22;;;;;;;1.35;1.35;;;10.50;99.10;;;;;;4952447;28;20212;-69
2022/04/19 08:31:49;;;;;;;1.20;1.20;;;10.60;99.00;;;;;;4952138;28;20256;-69
2022/04/19 08:34:16;;;;;;;1.30;1.30;;;10.60;98.90;;;;;;4951718;28;20209;-69
2022/04/19 08:36:43;;;;;;;1.67;1.67;;;10.70;98.60;;;;;;4952644;28;20201;-69
2022/04/19 08:39:10;;;;;;;1.15;1.15;;;10.80;98.80;;;;;;4951894;28;20260;-69
2022/04/19 08:41:37;;;;;;;1.45;1.45;;;10.80;98.40;;;;;;4962470;28;20255;-68
2022/04/19 08:44:05;;;;;;;1.23;1.23;;;10.90;98.50;;;;;;4953348;28;20284;-68
2022/04/19 08:46:35;;;;;;;1.90;1.88;;;10.90;98.40;;;;;;4952712;28;20237;-68
2022/04/19 08:49:04;;;;;;;1.73;1.73;;;11.00;98.20;;;;;;4957782;28;20212;-68
2022/04/19 08:51:33;;;;;;;1.50;1.40;;;11.10;98.30;;;;;;4967894;28;20336;-68
2022/04/19 08:59:29;;;;;;;0.85;0.85;;;11.40;97.50;;;;;;4948583;29;20288;-68
2022/04/19 09:01:57;;;;;;;1.30;1.30;;;11.60;98.10;;;;;;4963098;28;20334;-68
2022/04/19 09:04:24;;;;;;;1.55;1.55;;;11.70;97.20;;;;;;4958592;28;20209;-68
2022/04/19 09:06:53;;;;;;;0.98;0.98;;;11.90;96.90;;;;;;4953461;28;20276;-68
2022/04/19 09:09:23;;;;;;;2.25;1.98;;;12.00;96.70;;;;;;4961670;28;20216;-68
2022/04/19 09:11:49;;;;;;;2.15;1.00;;;12.10;96.80;;;;;;4966983;28;20303;-68
2022/04/19 09:14:17;;;;;;;1.52;1.42;;;12.10;96.80;;;;;;4958954;28;20206;-68
2022/04/19 09:16:44;;;;;;;0.90;0.90;;;12.10;96.70;;;;;;4952397;28;20594;-68
2022/04/19 09:19:26;;;;;;;2.08;1.23;;;12.20;97.20;;;;;;4951590;28;20577;-68
2022/04/19 09:21:53;;;;;;;0.98;0.98;;;12.30;95.90;;;;;;4951540;28;20237;-68
2022/04/19 09:24:21;;;;;;;1.70;1.70;;;12.30;95.70;;;;;;4950816;28;20205;-68
2022/04/19 09:26:49;;;;;;;1.45;1.35;;;12.40;96.10;;;;;;4956284;28;20663;-68
2022/04/19 09:29:20;;;;;;;0.70;0.70;;;12.50;95.80;;;;;;4955652;28;20244;-68
2022/04/19 09:31:47;;;;;;;1.73;1.70;;;12.60;95.30;;;;;;4947807;28;20229;-68
2022/04/19 09:34:27;;;;;;;1.40;1.30;;;12.70;95.30;;;;;;4956548;28;20467;-68
2022/04/19 09:36:54;;;;;;;1.30;1.20;;;12.80;94.30;;;;;;4955281;28;20578;-67
2022/04/19 09:39:28;;;;;;;2.57;1.13;;;12.80;93.90;;;;;;4966093;28;20205;-68
2022/04/19 09:42:01;;;;;;;1.60;0.90;;;12.80;94.00;;;;;;4955438;28;20515;-63
2022/04/19 09:44:29;;;;;;;1.63;1.50;;;12.90;93.90;;;;;;4954236;28;20891;-66
2022/04/19 09:47:03;;;;;;;1.00;1.00;;;13.00;93.90;;;;;;4955376;28;20201;-65
2022/04/19 09:49:48;;;;;;;1.23;1.23;;;13.10;94.00;;;;;;4967748;28;20475;-66
2022/04/19 09:52:36;;;;;;;1.50;1.40;;;13.20;94.50;;;;;;4956643;28;20480;-65
2022/04/19 09:55:04;;;;;;;1.20;1.20;;;13.20;93.30;;;;;;4965816;28;20467;-65
2022/04/19 09:57:33;;;;;;;0.90;0.90;;;13.20;93.30;;;;;;4964287;28;20552;-65
2022/04/19 10:00:01;;;;;;;1.60;1.50;;;13.20;93.10;;;;;;4960083;28;20460;-65
2022/04/19 10:08:14;;;;;;;1.10;1.10;;;13.20;92.90;;;;;;4954842;28;20567;-64
2022/04/19 10:10:41;;;;;;;1.50;1.50;;;13.20;92.70;;;;;;4954344;28;20512;-64
2022/04/19 10:13:08;;;;;;;1.00;1.00;;;13.20;92.90;;;;;;4954658;28;20461;-65
2022/04/19 10:15:36;;;;;;;1.43;1.43;;;13.40;93.00;;;;;;4954636;28;20475;-65
2022/04/19 10:18:04;;;;;;;1.43;1.33;;;13.50;92.70;;;;;;4950780;28;20464;-64
2022/04/19 10:20:34;;;;;;;1.50;1.40;;;13.60;92.40;;;;;;4953724;28;20465;-64
2022/04/19 10:23:03;;;;;;;0.90;0.90;;;13.70;92.00;;;;;;4956771;28;20950;-68
2022/04/19 10:25:43;;;;;;;1.10;1.10;;;13.80;91.70;;;;;;4954162;28;20464;-70
2022/04/19 10:28:10;;;;;;;1.50;1.40;;;13.90;90.10;;;;;;4954232;29;20545;-68
2022/04/19 10:30:38;;;;;;;1.50;1.50;;;13.70;89.50;;;;;;4953643;28;20495;-68
2022/04/19 10:33:39;;;;;;;2.10;2.10;;;13.70;90.10;;;;;;4953876;28;20496;-67
2022/04/19 10:36:15;;;;;;;1.03;1.03;;;13.70;89.20;;;;;;4953157;28;20958;-68
2022/04/19 10:38:42;;;;;;;1.90;1.90;;;13.70;88.70;;;;;;4955169;29;20463;-68
2022/04/19 10:41:09;;;;;;;1.30;1.30;;;13.70;86.80;;;;;;4952824;29;20484;-67
2022/04/19 10:43:36;;;;;;;0.87;0.87;;;13.80;83.80;;;;;;4954688;28;20469;-68
2022/04/19 10:46:22;;;;;;;0.60;0.60;;;13.90;82.60;;;;;;4955629;28;20469;-68
2022/04/19 10:49:23;;;;;;;0.70;0.70;;;14.10;78.20;;;;;;4953835;29;20465;-68
2022/04/19 10:51:59;;;;;;;1.70;0.73;;;14.20;75.60;;;;;;4954272;29;20485;-68
2022/04/19 10:55:01;;;;;;;0.87;0.87;;;14.10;74.50;;;;;;4953219;29;20468;-68
2022/04/19 11:00:25;;;;;;;0.70;0.70;;;14.10;70.80;;;;;;4953165;29;20521;-68
2022/04/19 11:03:00;;;;;;;0.67;0.67;;;14.10;72.30;;;;;;4953090;29;20511;-67
2022/04/19 11:05:42;;;;;;;1.60;0.97;;;14.10;71.70;;;;;;4953160;29;20857;-67
2022/04/19 11:08:37;;;;;;;1.00;1.00;;;14.10;71.90;;;;;;4953592;29;20889;-67
2022/04/19 11:11:21;;;;;;;0.63;0.63;;;14.20;72.80;;;;;;4952572;29;20580;-68
2022/04/19 11:14:20;;;;;;;0.90;0.90;;;14.40;72.50;;;;;;4934520;29;20787;-68
2022/04/19 11:16:51;;;;;;;1.00;1.00;;;14.40;69.30;;;;;;4934503;29;20465;-69
2022/04/19 11:19:21;;;;;;;0.80;0.80;;;14.40;70.40;;;;;;4933376;29;20462;-69
2022/04/19 11:21:52;;;;;;;0.90;0.90;;;14.50;70.30;;;;;;4939013;29;20504;-67
2022/04/19 11:24:56;;;;;;;1.03;1.03;;;14.50;68.60;;;;;;4953243;29;20519;-67
2022/04/19 11:27:25;;;;;;;1.17;1.17;;;14.40;69.80;;;;;;4953234;28;20471;-67
2022/04/19 11:29:52;;;;;;;1.80;0.80;;;14.50;68.20;;;;;;4949090;29;20470;-68
2022/04/19 11:32:21;;;;;;;0.70;0.70;;;14.60;66.20;;;;;;4950284;29;20989;-67
2022/04/19 11:34:58;;;;;;;1.53;1.40;;;14.70;65.60;;;;;;4952453;28;20646;-67
2022/04/19 11:37:25;;;;;;;1.20;1.20;;;14.80;66.70;;;;;;4952928;28;20503;-66
2022/04/19 11:48:10;;;;;;;0.93;0.93;;;14.80;64.40;;;;;;4951873;28;20968;-67
2022/04/19 11:50:37;;;;;;;1.90;1.27;;;14.80;64.40;;;;;;4951771;29;20489;-67
2022/04/19 11:53:04;;;;;;;0.40;0.40;;;14.80;62.60;;;;;;4952213;29;20469;-67
2022/04/19 11:55:31;;;;;;;0.77;0.77;;;14.90;63.40;;;;;;4952233;29;20472;-67
2022/04/19 11:58:06;;;;;;;1.07;1.07;;;14.90;62.80;;;;;;4952743;29;20469;-67
2022/04/19 12:00:34;;;;;;;1.00;1.00;;;14.90;64.20;;;;;;4951790;29;21008;-68
2022/04/19 12:03:02;;;;;;;1.10;1.10;;;14.90;64.00;;;;;;4951303;29;20485;-68
2022/04/19 12:05:30;;;;;;;1.80;1.40;;;15.00;62.40;;;;;;4952198;29;20464;-68
2022/04/19 12:07:57;;;;;;;1.10;1.10;;;14.90;63.10;;;;;;4948326;29;20526;-67
2022/04/19 12:10:25;;;;;;;2.30;0.87;;;14.90;63.80;;;;;;4949659;29;20472;-68
2022/04/19 12:12:52;;;;;;;1.33;1.00;;;14.90;62.80;;;;;;4952310;28;20461;-68
2022/04/19 12:15:41;;;;;;;0.97;0.97;;;14.90;63.10;;;;;;4952244;29;20477;-68
2022/04/19 12:18:10;;;;;;;1.00;1.00;;;15.00;62.30;;;;;;4952591;28;20472;-67
2022/04/19 12:20:43;;;;;;;0.80;0.80;;;15.10;61.70;;;;;;4951321;29;20480;-67
2022/04/19 12:23:18;;;;;;;1.13;1.13;;;15.10;61.10;;;;;;4952268;29;20575;-67
2022/04/19 12:26:07;;;;;;;0.97;0.97;;;15.00;60.40;;;;;;4952327;28;21012;-68
2022/04/19 12:28:45;;;;;;;1.00;1.00;;;15.00;61.40;;;;;;4952493;28;20556;-68
2022/04/19 12:31:33;;;;;;;0.90;0.90;;;15.00;62.10;;;;;;4951713;28;20484;-67
2022/04/19 12:34:00;;;;;;;1.30;1.30;;;15.10;62.60;;;;;;4932786;29;20489;-67
2022/04/19 12:36:27;;;;;;;1.30;1.30;;;15.10;62.00;;;;;;4943328;29;20456;-68
2022/04/19 12:39:02;;;;;;;3.90;1.10;;;15.10;61.30;;;;;;4952220;29;20456;-68
2022/04/19 12:41:36;;;;;;;0.90;0.90;;;15.10;61.00;;;;;;4952082;28;20488;-67
2022/04/19 12:44:04;;;;;;;1.20;1.20;;;15.10;62.30;;;;;;4933616;29;20496;-67
2022/04/19 12:46:32;;;;;;;1.20;1.20;;;15.20;61.00;;;;;;4933366;29;20469;-68
2022/04/19 12:48:59;;;;;;;1.10;1.10;;;15.10;62.00;;;;;;4932797;29;20501;-67
2022/04/19 12:51:26;;;;;;;1.30;1.30;;;15.20;61.10;;;;;;4932020;29;20490;-67
2022/04/19 12:54:04;;;;;;;1.00;1.00;;;15.30;62.70;;;;;;4951861;29;20507;-68
2022/04/19 12:56:31;;;;;;;1.13;1.13;;;15.30;61.40;;;;;;4952470;29;20465;-67
2022/04/19 12:58:57;;;;;;;1.03;1.03;;;15.30;61.40;;;;;;4948261;28;20469;-68
2022/04/19 13:01:24;;;;;;;1.10;1.10;;;15.20;61.70;;;;;;4954188;28;21088;-67
2022/04/19 13:03:52;;;;;;;2.97;1.57;;;15.20;61.60;;;;;;4954632;28;21167;-67
2022/04/19 13:14:32;;;;;;;1.33;1.33;;;15.40;61.40;;;;;;4955242;29;20447;-67
2022/04/19 13:16:59;;;;;;;1.20;1.20;;;15.40;61.40;;;;;;4955462;29;20465;-68
2022/04/19 13:19:27;;;;;;;1.30;1.30;;;15.20;61.20;;;;;;4954174;29;20464;-68
2022/04/19 13:21:54;;;;;;;1.60;1.50;;;15.20;61.90;;;;;;4954258;29;20485;-68
2022/04/19 13:24:20;;;;;;;2.20;1.37;;;15.20;62.50;;;;;;4955071;29;20464;-68
2022/04/19 13:26:47;;;;;;;1.30;1.30;;;15.30;63.40;;;;;;4955267;29;20476;-68
2022/04/19 13:29:14;;;;;;;1.80;1.50;;;15.30;62.20;;;;;;4955215;29;20467;-68
2022/04/19 13:31:41;;;;;;;1.73;1.73;;;15.30;62.40;;;;;;4952341;29;20492;-68
2022/04/19 13:34:08;;;;;;;1.03;1.03;;;15.40;62.40;;;;;;4954705;28;20476;-69
2022/04/19 13:36:36;;;;;;;1.33;1.23;;;15.40;61.80;;;;;;4954730;28;20559;-69
2022/04/19 13:39:02;;;;;;;1.53;1.53;;;15.60;61.40;;;;;;4954702;28;20467;-68
2022/04/19 13:41:29;;;;;;;1.40;1.40;;;15.50;60.80;;;;;;4954828;29;20496;-68
2022/04/19 13:43:56;;;;;;;3.60;1.60;;;15.50;60.70;;;;;;4954726;29;20495;-68
2022/04/19 13:46:23;;;;;;;1.60;1.60;;;15.50;61.20;;;;;;4955159;29;20542;-69
2022/04/19 13:48:49;;;;;;;1.60;1.60;;;15.40;61.00;;;;;;4954767;29;20839;-68
2022/04/19 13:51:16;;;;;;;1.27;1.27;;;15.40;60.80;;;;;;4954204;29;20511;-68
2022/04/19 13:53:44;;;;;;;1.30;1.30;;;15.40;60.40;;;;;;4955024;29;20471;-68
2022/04/19 13:56:11;;;;;;;1.03;1.03;;;15.40;60.40;;;;;;4954924;29;20930;-68
2022/04/19 13:58:38;;;;;;;1.40;1.40;;;15.40;60.20;;;;;;4954995;29;20460;-68
2022/04/19 14:01:05;;;;;;;1.40;1.40;;;15.40;59.30;;;;;;4953832;28;20587;-67
2022/04/19 14:03:31;;;;;;;1.70;1.47;;;15.30;59.80;;;;;;4954091;29;20496;-68
2022/04/19 14:06:00;;;;;;;1.30;1.30;;;15.30;60.10;;;;;;4954474;29;20464;-67
2022/04/19 14:08:27;;;;;;;1.70;1.70;;;15.40;61.30;;;;;;4954667;28;20839;-68
2022/04/19 14:10:58;;;;;;;1.10;1.10;;;15.40;60.40;;;;;;4953629;28;20488;-67
2022/04/19 14:13:24;;;;;;;1.37;1.37;;;15.40;59.30;;;;;;4954584;29;20516;-67
2022/04/19 14:15:52;;;;;;;1.57;1.50;;;15.50;61.10;;;;;;4954416;29;20837;-67
2022/04/19 14:18:19;;;;;;;1.10;1.10;;;15.50;60.90;;;;;;4954174;29;20811;-67
2022/04/19 14:20:48;;;;;;;1.83;1.73;;;15.60;61.30;;;;;;4950608;28;20485;-67
2022/04/19 14:23:14;;;;;;;1.47;1.37;;;15.60;60.20;;;;;;4954556;28;20575;-68
2022/04/19 14:25:41;;;;;;;1.27;1.27;;;15.60;60.80;;;;;;4954475;28;20540;-68
2022/04/19 14:28:09;;;;;;;1.40;1.40;;;15.50;60.20;;;;;;4953994;28;20474;-68
2022/04/19 14:33:21;;;;;;;1.20;1.20;;;15.60;60.60;;;;;;4954472;29;20937;-68
2022/04/19 14:35:48;;;;;;;1.60;1.50;;;15.50;60.30;;;;;;4954712;29;20475;-68
2022/04/19 14:38:15;;;;;;;1.57;1.40;;;15.40;59.50;;;;;;4954444;29;20824;-68
2022/04/19 14:40:42;;;;;;;1.57;1.47;;;15.40;60.40;;;;;;4953689;29;20491;-69
2022/04/19 14:43:10;;;;;;;1.50;1.50;;;15.50;60.20;;;;;;4952631;29;20536;-67
2022/04/19 14:45:37;;;;;;;1.47;1.43;;;15.50;59.80;;;;;;4953755;29;21008;-68
2022/04/19 14:48:05;;;;;;;1.17;1.17;;;15.50;60.80;;;;;;4953040;29;20471;-68
2022/04/19 14:50:32;;;;;;;1.37;1.37;;;15.50;60.40;;;;;;4952945;28;20467;-68
2022/04/19 14:52:58;;;;;;;5.23;1.50;;;15.50;60.20;;;;;;4953572;29;20465;-68
2022/04/19 14:55:25;;;;;;;1.60;1.60;;;15.40;60.40;;;;;;4955051;29;20828;-67
2022/04/19 14:57:52;;;;;;;1.70;1.70;;;15.50;61.10;;;;;;4951416;29;20491;-69
2022/04/19 15:00:20;;;;;;;1.63;1.53;;;15.50;59.90;;;;;;4961593;28;20547;-68
2022/04/19 15:02:47;;;;;;;1.40;1.40;;;15.50;60.80;;;;;;4965550;28;20488;-69
2022/04/19 15:05:14;;;;;;;1.40;1.30;;;15.50;60.80;;;;;;4953604;29;21025;-69
2022/04/19 15:07:40;;;;;;;1.40;1.40;;;15.40;60.70;;;;;;4954479;29;20468;-68
2022/04/19 15:10:08;;;;;;;1.50;1.37;;;15.30;59.80;;;;;;4953112;29;20465;-68
2022/04/19 15:12:34;;;;;;;1.20;1.20;;;15.30;61.40;;;;;;4954183;29;20537;-68
2022/04/19 15:15:01;;;;;;;1.20;1.20;;;15.30;62.20;;;;;;4954013;29;20844;-68
2022/04/19 15:17:29;;;;;;;1.80;1.77;;;15.30;61.80;;;;;;4953924;29;20465;-68
2022/04/19 15:19:56;;;;;;;1.53;1.53;;;15.20;62.00;;;;;;4952983;29;20790;-68
2022/04/19 15:22:23;;;;;;;1.50;1.40;;;15.30;63.40;;;;;;4953303;28;20491;-68
2022/04/19 15:24:49;;;;;;;1.67;1.67;;;15.50;63.50;;;;;;4953212;29;21036;-68
2022/04/19 15:27:17;;;;;;;1.80;1.70;;;15.40;62.90;;;;;;4953209;29;20464;-68
2022/04/19 15:29:44;;;;;;;1.67;1.57;;;15.30;63.30;;;;;;4950789;29;20864;-69
2022/04/19 15:32:11;;;;;;;1.30;1.30;;;15.20;63.60;;;;;;4949754;29;20492;-67
2022/04/19 15:34:40;;;;;;;1.43;1.43;;;15.20;64.00;;;;;;4952171;28;20539;-67
2022/04/19 15:37:07;;;;;;;1.10;1.10;;;15.20;63.30;;;;;;4953191;29;20471;-68
2022/04/19 15:39:33;;;;;;;1.57;1.57;;;15.30;64.50;;;;;;4952535;29;20465;-67
2022/04/19 15:42:00;;;;;;;1.90;1.73;;;15.30;63.00;;;;;;4953154;29;20495;-67
2022/04/19 15:44:27;;;;;;;1.30;1.20;;;15.30;64.00;;;;;;4952392;29;21023;-68
2022/04/19 15:46:54;;;;;;;2.00;1.90;;;15.40;64.80;;;;;;4953160;28;20475;-67
2022/04/19 15:49:21;;;;;;;1.50;1.50;;;15.40;64.00;;;;;;4952091;28;20469;-69
2022/04/19 15:51:50;;;;;;;1.60;1.60;;;15.40;64.90;;;;;;4952540;28;20485;-68
2022/04/19 15:54:17;;;;;;;1.70;1.70;;;15.20;65.00;;;;;;4952762;28;20983;-67
2022/04/19 15:56:43;;;;;;;2.33;1.87;;;15.20;65.70;;;;;;4952454;28;20548;-68
2022/04/19 15:59:10;;;;;;;1.90;1.83;;;15.20;66.50;;;;;;4952301;29;20463;-69
2022/04/19 16:01:37;;;;;;;1.30;1.30;;;15.30;67.50;;;;;;4952037;29;20488;-69
2022/04/19 16:04:04;;;;;;;1.70;1.70;;;15.30;67.50;;;;;;4951844;29;20492;-69
2022/04/19 16:06:31;;;;;;;1.40;1.40;;;15.20;67.50;;;;;;4951983;29;20464;-69
2022/04/19 16:08:59;;;;;;;1.57;1.57;;;15.20;67.60;;;;;;4951932;29;20795;-68
2022/04/19 16:11:25;;;;;;;1.33;1.33;;;15.20;68.40;;;;;;4951944;29;20987;-68
2022/04/19 16:13:52;;;;;;;1.23;1.23;;;15.20;68.50;;;;;;4952412;29;20465;-68
2022/04/19 16:24:33;;;;;;;1.40;1.30;;;15.00;67.70;;;;;;4951750;28;20617;-67
2022/04/19 16:27:00;;;;;;;1.57;1.57;;;15.00;67.90;;;;;;4933212;29;20959;-67
2022/04/19 16:29:27;;;;;;;1.80;1.70;;;15.10;69.10;;;;;;4950622;28;20473;-68
2022/04/19 16:31:54;;;;;;;1.30;1.30;;;15.00;69.10;;;;;;4958285;28;20489;-67
2022/04/19 16:34:21;;;;;;;1.30;1.30;;;15.00;68.70;;;;;;4946009;28;20465;-67
2022/04/19 16:36:48;;;;;;;1.63;1.53;;;14.90;68.30;;;;;;4964379;28;20464;-67
2022/04/19 16:39:14;;;;;;;1.53;1.50;;;14.90;69.10;;;;;;4955950;28;20465;-67
2022/04/19 16:41:42;;;;;;;1.20;1.20;;;14.90;69.20;;;;;;4955598;28;20503;-67
2022/04/19 16:44:09;;;;;;;1.77;1.70;;;14.80;69.00;;;;;;4954199;29;20948;-67
2022/04/19 16:46:36;;;;;;;1.33;1.33;;;14.80;70.10;;;;;;4955713;28;20465;-67
2022/04/19 16:49:02;;;;;;;2.50;1.50;;;14.80;70.30;;;;;;4950715;29;20564;-67
2022/04/19 16:51:29;;;;;;;2.40;2.30;;;14.80;70.20;;;;;;4955160;28;20487;-66
2022/04/19 16:53:56;;;;;;;1.30;1.20;;;14.80;69.70;;;;;;4958750;28;20465;-67
2022/04/19 16:56:22;;;;;;;1.90;1.33;;;14.70;69.50;;;;;;4955894;28;20473;-67
2022/04/19 16:58:50;;;;;;;1.52;1.52;;;14.60;69.20;;;;;;4959026;28;20474;-67
2022/04/19 17:01:17;;;;;;;1.50;1.50;;;14.50;68.90;;;;;;4953097;28;20500;-67
2022/04/19 17:03:59;;;;;;;1.43;1.43;;;14.50;69.50;;;;;;4954903;28;20647;-67
2022/04/19 17:06:27;;;;;;;1.10;1.10;;;14.40;69.70;;;;;;4954471;29;20808;-67
2022/04/19 17:08:55;;;;;;;1.50;1.50;;;14.40;70.10;;;;;;4955566;29;20460;-68
2022/04/19 17:11:22;;;;;;;1.20;1.20;;;14.40;69.20;;;;;;4955011;29;20487;-67
2022/04/19 17:13:51;;;;;;;1.33;1.30;;;14.30;69.90;;;;;;4955693;29;20567;-68
2022/04/19 17:16:18;;;;;;;1.40;1.30;;;14.30;70.00;;;;;;4955705;28;20461;-68
2022/04/19 17:18:44;;;;;;;1.90;1.50;;;14.20;69.50;;;;;;4955483;29;20619;-68
2022/04/19 17:21:11;;;;;;;2.20;2.20;;;14.20;70.30;;;;;;4954574;29;20488;-68
2022/04/19 17:23:38;;;;;;;3.50;3.20;;;14.10;75.20;;;;;;4955505;29;20484;-68
2022/04/19 17:26:05;;;;;;;4.00;3.43;;;14.00;82.30;;;;;;4955632;29;20878;-67
2022/04/19 17:28:32;;;;;;;2.97;2.77;;;13.90;84.50;;;;;;4955329;28;20887;-68
2022/04/19 17:31:00;;;;;;;5.07;3.20;;;13.80;85.70;;;;;;4948618;28;20496;-68
2022/04/19 17:33:27;;;;;;;2.87;2.57;;;13.70;86.90;;;;;;4955054;28;20461;-68
2022/04/19 17:35:54;;;;;;;2.93;2.73;;;13.60;88.00;;;;;;4955146;28;20465;-68
2022/04/19 17:38:20;;;;;;;2.70;2.60;;;13.50;89.10;;;;;;4954960;28;20468;-68
2022/04/19 17:40:47;;;;;;;3.97;3.13;;;13.40;89.80;;;;;;4953759;29;20484;-68
2022/04/19 17:43:14;;;;;;;3.43;3.23;;;13.30;90.30;;;;;;4954198;29;20527;-68
2022/04/19 17:45:42;;;;;;;2.93;2.73;;;13.30;90.70;;;;;;4953795;28;20810;-67
2022/04/19 17:48:10;;;;;;;3.60;2.80;;;13.20;91.00;;;;;;4953984;29;20531;-68
2022/04/19 17:58:51;;;;;;;3.42;3.13;;;12.90;92.50;;;;;;4954809;29;20255;-68
2022/04/19 18:01:18;;;;;;;3.20;3.00;;;12.90;92.80;;;;;;4954100;29;20236;-67
2022/04/19 18:03:46;;;;;;;6.60;3.05;;;12.80;93.20;;;;;;4954412;29;20495;-67